sensor_id;sensor_type;location;lat;lon;timestamp;P1;durP1;ratioP1;P2;durP2;ratioP2
11422;SDS011;5768;51.476;7.210;2023-06-14T00:03:44;8.98;;;6.53;;
11422;SDS011;5768;51.476;7.210;2023-06-14T00:08:47;6.35;;;5.57;;
11422;SDS011;5768;51.476;7.210;2023-06-14T00:13:51;8.60;;;5.40;;
11422;SDS011;5768;51.476;7.210;2023-06-14T00:18:53;6.13;;;5.60;;
11422;SDS011;5768;51.476;7.210;2023-06-14T00:23:57;8.93;;;6.63;;
11422;SDS011;5768;51.476;7.210;2023-06-14T00:29:01;7.10;;;5.50;;
11422;SDS011;5768;51.476;7.210;2023-06-14T00:34:03;7.40;;;5.65;;
11422;SDS011;5768;51.476;7.210;2023-06-14T00:39:07;7.45;;;5.95;;
11422;SDS011;5768;51.476;7.210;2023-06-14T00:44:12;9.20;;;5.72;;
11422;SDS011;5768;51.476;7.210;2023-06-14T00:49:17;10.52;;;6.10;;
11422;SDS011;5768;51.476;7.210;2023-06-14T00:54:20;8.40;;;6.65;;
11422;SDS011;5768;51.476;7.210;2023-06-14T00:59:24;6.88;;;5.18;;
11422;SDS011;5768;51.476;7.210;2023-06-14T01:04:27;9.55;;;5.15;;
11422;SDS011;5768;51.476;7.210;2023-06-14T01:09:31;7.53;;;5.40;;
11422;SDS011;5768;51.476;7.210;2023-06-14T01:14:40;6.03;;;5.43;;
11422;SDS011;5768;51.476;7.210;2023-06-14T01:19:43;6.88;;;5.20;;
11422;SDS011;5768;51.476;7.210;2023-06-14T01:24:48;7.25;;;5.30;;
11422;SDS011;5768;51.476;7.210;2023-06-14T01:29:55;6.38;;;5.45;;
11422;SDS011;5768;51.476;7.210;2023-06-14T01:34:58;7.47;;;5.95;;
11422;SDS011;5768;51.476;7.210;2023-06-14T01:40:01;6.80;;;5.35;;
11422;SDS011;5768;51.476;7.210;2023-06-14T01:45:06;6.20;;;4.88;;
11422;SDS011;5768;51.476;7.210;2023-06-14T01:50:10;6.00;;;5.40;;
11422;SDS011;5768;51.476;7.210;2023-06-14T01:55:15;11.50;;;5.43;;
11422;SDS011;5768;51.476;7.210;2023-06-14T02:00:18;6.53;;;5.50;;
11422;SDS011;5768;51.476;7.210;2023-06-14T02:05:21;7.00;;;5.45;;
11422;SDS011;5768;51.476;7.210;2023-06-14T02:10:25;10.23;;;5.53;;
11422;SDS011;5768;51.476;7.210;2023-06-14T02:15:28;6.07;;;5.47;;
11422;SDS011;5768;51.476;7.210;2023-06-14T02:20:33;7.70;;;5.13;;
11422;SDS011;5768;51.476;7.210;2023-06-14T02:25:37;6.95;;;5.43;;
11422;SDS011;5768;51.476;7.210;2023-06-14T02:30:40;8.30;;;5.50;;
11422;SDS011;5768;51.476;7.210;2023-06-14T02:35:43;5.82;;;5.00;;
11422;SDS011;5768;51.476;7.210;2023-06-14T02:40:47;6.80;;;4.97;;
11422;SDS011;5768;51.476;7.210;2023-06-14T02:45:50;5.47;;;4.97;;
11422;SDS011;5768;51.476;7.210;2023-06-14T02:50:52;5.20;;;4.55;;
11422;SDS011;5768;51.476;7.210;2023-06-14T02:55:57;5.53;;;5.03;;
11422;SDS011;5768;51.476;7.210;2023-06-14T03:01:01;5.25;;;4.68;;
11422;SDS011;5768;51.476;7.210;2023-06-14T03:06:03;5.38;;;4.30;;
11422;SDS011;5768;51.476;7.210;2023-06-14T03:11:09;5.80;;;4.50;;
11422;SDS011;5768;51.476;7.210;2023-06-14T03:16:12;5.57;;;4.50;;
11422;SDS011;5768;51.476;7.210;2023-06-14T03:21:14;7.55;;;4.57;;
11422;SDS011;5768;51.476;7.210;2023-06-14T03:26:18;6.07;;;4.28;;
11422;SDS011;5768;51.476;7.210;2023-06-14T03:31:22;7.57;;;4.63;;
11422;SDS011;5768;51.476;7.210;2023-06-14T03:36:25;5.65;;;4.32;;
11422;SDS011;5768;51.476;7.210;2023-06-14T03:41:29;4.38;;;4.00;;
11422;SDS011;5768;51.476;7.210;2023-06-14T03:46:31;5.35;;;4.65;;
11422;SDS011;5768;51.476;7.210;2023-06-14T03:51:34;4.20;;;3.80;;
11422;SDS011;5768;51.476;7.210;2023-06-14T03:56:38;4.43;;;4.03;;
11422;SDS011;5768;51.476;7.210;2023-06-14T04:01:40;7.82;;;4.07;;
11422;SDS011;5768;51.476;7.210;2023-06-14T04:06:45;5.60;;;4.00;;
11422;SDS011;5768;51.476;7.210;2023-06-14T04:11:49;5.47;;;3.97;;
11422;SDS011;5768;51.476;7.210;2023-06-14T04:16:53;8.23;;;4.20;;
11422;SDS011;5768;51.476;7.210;2023-06-14T04:21:55;9.32;;;4.05;;
11422;SDS011;5768;51.476;7.210;2023-06-14T04:27:00;5.72;;;3.83;;
11422;SDS011;5768;51.476;7.210;2023-06-14T04:32:03;6.47;;;3.72;;
11422;SDS011;5768;51.476;7.210;2023-06-14T04:37:10;6.13;;;3.80;;
11422;SDS011;5768;51.476;7.210;2023-06-14T04:42:14;4.65;;;4.10;;
11422;SDS011;5768;51.476;7.210;2023-06-14T04:47:21;7.10;;;3.88;;
11422;SDS011;5768;51.476;7.210;2023-06-14T04:52:25;5.78;;;4.25;;
11422;SDS011;5768;51.476;7.210;2023-06-14T04:57:31;5.95;;;3.63;;
11422;SDS011;5768;51.476;7.210;2023-06-14T05:02:35;7.10;;;3.80;;
11422;SDS011;5768;51.476;7.210;2023-06-14T05:07:37;5.68;;;4.00;;
11422;SDS011;5768;51.476;7.210;2023-06-14T05:12:42;8.80;;;3.40;;
11422;SDS011;5768;51.476;7.210;2023-06-14T05:17:45;6.95;;;3.90;;
11422;SDS011;5768;51.476;7.210;2023-06-14T05:22:55;4.68;;;4.18;;
11422;SDS011;5768;51.476;7.210;2023-06-14T05:27:59;5.18;;;3.53;;
11422;SDS011;5768;51.476;7.210;2023-06-14T05:33:03;4.97;;;3.97;;
11422;SDS011;5768;51.476;7.210;2023-06-14T05:38:05;7.43;;;3.90;;
11422;SDS011;5768;51.476;7.210;2023-06-14T05:43:09;9.40;;;4.22;;
11422;SDS011;5768;51.476;7.210;2023-06-14T05:48:11;4.70;;;4.20;;
11422;SDS011;5768;51.476;7.210;2023-06-14T05:53:14;4.43;;;3.67;;
11422;SDS011;5768;51.476;7.210;2023-06-14T05:58:18;5.90;;;3.20;;
11422;SDS011;5768;51.476;7.210;2023-06-14T06:03:21;6.78;;;3.22;;
11422;SDS011;5768;51.476;7.210;2023-06-14T06:08:23;8.10;;;3.38;;
11422;SDS011;5768;51.476;7.210;2023-06-14T06:13:28;8.55;;;3.50;;
11422;SDS011;5768;51.476;7.210;2023-06-14T06:18:30;5.20;;;3.22;;
11422;SDS011;5768;51.476;7.210;2023-06-14T06:23:33;9.05;;;3.75;;
11422;SDS011;5768;51.476;7.210;2023-06-14T06:28:37;4.72;;;3.20;;
11422;SDS011;5768;51.476;7.210;2023-06-14T06:33:39;3.50;;;2.80;;
11422;SDS011;5768;51.476;7.210;2023-06-14T06:38:42;6.05;;;2.75;;
11422;SDS011;5768;51.476;7.210;2023-06-14T06:43:46;6.38;;;3.40;;
11422;SDS011;5768;51.476;7.210;2023-06-14T06:48:49;4.38;;;3.50;;
11422;SDS011;5768;51.476;7.210;2023-06-14T06:53:52;4.97;;;3.53;;
11422;SDS011;5768;51.476;7.210;2023-06-14T06:58:56;5.03;;;3.22;;
11422;SDS011;5768;51.476;7.210;2023-06-14T07:03:59;7.40;;;2.90;;
11422;SDS011;5768;51.476;7.210;2023-06-14T07:09:03;5.30;;;2.60;;
11422;SDS011;5768;51.476;7.210;2023-06-14T07:14:09;5.93;;;2.38;;
11422;SDS011;5768;51.476;7.210;2023-06-14T07:19:12;5.10;;;2.70;;
11422;SDS011;5768;51.476;7.210;2023-06-14T07:24:15;4.88;;;2.60;;
11422;SDS011;5768;51.476;7.210;2023-06-14T07:29:19;4.90;;;2.40;;
11422;SDS011;5768;51.476;7.210;2023-06-14T07:34:22;4.93;;;2.38;;
11422;SDS011;5768;51.476;7.210;2023-06-14T07:39:24;3.83;;;2.50;;
11422;SDS011;5768;51.476;7.210;2023-06-14T07:44:29;4.93;;;2.40;;
11422;SDS011;5768;51.476;7.210;2023-06-14T07:49:32;5.07;;;2.65;;
11422;SDS011;5768;51.476;7.210;2023-06-14T07:54:34;3.58;;;2.70;;
11422;SDS011;5768;51.476;7.210;2023-06-14T07:59:39;6.22;;;2.80;;
11422;SDS011;5768;51.476;7.210;2023-06-14T08:04:41;3.85;;;2.33;;
11422;SDS011;5768;51.476;7.210;2023-06-14T08:09:44;4.20;;;2.38;;
11422;SDS011;5768;51.476;7.210;2023-06-14T08:14:48;3.63;;;2.40;;
11422;SDS011;5768;51.476;7.210;2023-06-14T08:19:51;4.13;;;2.50;;
11422;SDS011;5768;51.476;7.210;2023-06-14T08:24:57;6.63;;;2.22;;
11422;SDS011;5768;51.476;7.210;2023-06-14T08:30:01;3.30;;;2.78;;
11422;SDS011;5768;51.476;7.210;2023-06-14T08:35:04;3.47;;;2.38;;
11422;SDS011;5768;51.476;7.210;2023-06-14T08:40:18;2.95;;;2.10;;
11422;SDS011;5768;51.476;7.210;2023-06-14T08:45:24;4.53;;;2.28;;
11422;SDS011;5768;51.476;7.210;2023-06-14T08:50:27;5.53;;;2.83;;
11422;SDS011;5768;51.476;7.210;2023-06-14T08:55:31;3.10;;;2.90;;
11422;SDS011;5768;51.476;7.210;2023-06-14T09:00:35;3.70;;;2.33;;
11422;SDS011;5768;51.476;7.210;2023-06-14T09:05:39;2.63;;;2.42;;
11422;SDS011;5768;51.476;7.210;2023-06-14T09:10:41;3.33;;;2.03;;
11422;SDS011;5768;51.476;7.210;2023-06-14T09:15:47;2.05;;;1.77;;
11422;SDS011;5768;51.476;7.210;2023-06-14T09:20:49;6.28;;;1.70;;
11422;SDS011;5768;51.476;7.210;2023-06-14T09:25:52;3.45;;;1.98;;
11422;SDS011;5768;51.476;7.210;2023-06-14T09:30:56;2.92;;;1.80;;
11422;SDS011;5768;51.476;7.210;2023-06-14T09:36:00;3.20;;;2.10;;
11422;SDS011;5768;51.476;7.210;2023-06-14T09:41:03;3.10;;;1.70;;
11422;SDS011;5768;51.476;7.210;2023-06-14T09:46:07;2.78;;;2.22;;
11422;SDS011;5768;51.476;7.210;2023-06-14T09:51:10;4.50;;;1.60;;
11422;SDS011;5768;51.476;7.210;2023-06-14T09:56:18;5.43;;;3.42;;
11422;SDS011;5768;51.476;7.210;2023-06-14T10:01:26;1.85;;;1.52;;
11422;SDS011;5768;51.476;7.210;2023-06-14T10:06:35;3.25;;;1.48;;
11422;SDS011;5768;51.476;7.210;2023-06-14T10:11:40;3.95;;;2.15;;
11422;SDS011;5768;51.476;7.210;2023-06-14T10:16:47;2.08;;;1.88;;
11422;SDS011;5768;51.476;7.210;2023-06-14T10:21:58;2.83;;;1.70;;
11422;SDS011;5768;51.476;7.210;2023-06-14T10:27:06;2.00;;;1.67;;
11422;SDS011;5768;51.476;7.210;2023-06-14T10:32:12;1.88;;;1.58;;
11422;SDS011;5768;51.476;7.210;2023-06-14T10:37:14;5.38;;;1.65;;
11422;SDS011;5768;51.476;7.210;2023-06-14T10:42:18;4.57;;;1.92;;
11422;SDS011;5768;51.476;7.210;2023-06-14T10:47:28;2.45;;;1.95;;
11422;SDS011;5768;51.476;7.210;2023-06-14T10:52:32;3.42;;;1.70;;
11422;SDS011;5768;51.476;7.210;2023-06-14T10:57:37;3.15;;;1.88;;
11422;SDS011;5768;51.476;7.210;2023-06-14T11:02:58;3.15;;;1.77;;
11422;SDS011;5768;51.476;7.210;2023-06-14T11:14:11;4.88;;;1.90;;
11422;SDS011;5768;51.476;7.210;2023-06-14T11:19:15;1.83;;;1.65;;
11422;SDS011;5768;51.476;7.210;2023-06-14T11:24:19;4.53;;;2.10;;
11422;SDS011;5768;51.476;7.210;2023-06-14T11:29:21;3.08;;;2.20;;
11422;SDS011;5768;51.476;7.210;2023-06-14T11:34:26;3.50;;;2.40;;
11422;SDS011;5768;51.476;7.210;2023-06-14T11:39:28;2.38;;;1.77;;
11422;SDS011;5768;51.476;7.210;2023-06-14T11:44:31;2.63;;;2.10;;
11422;SDS011;5768;51.476;7.210;2023-06-14T11:49:36;5.43;;;2.63;;
11422;SDS011;5768;51.476;7.210;2023-06-14T11:54:39;6.13;;;2.15;;
11422;SDS011;5768;51.476;7.210;2023-06-14T11:59:43;5.93;;;2.30;;
11422;SDS011;5768;51.476;7.210;2023-06-14T12:04:47;2.20;;;2.00;;
11422;SDS011;5768;51.476;7.210;2023-06-14T12:10:06;3.95;;;1.80;;
11422;SDS011;5768;51.476;7.210;2023-06-14T12:15:10;3.15;;;2.10;;
11422;SDS011;5768;51.476;7.210;2023-06-14T12:20:15;4.65;;;2.22;;
11422;SDS011;5768;51.476;7.210;2023-06-14T12:25:28;4.20;;;2.20;;
11422;SDS011;5768;51.476;7.210;2023-06-14T12:30:32;2.53;;;1.80;;
11422;SDS011;5768;51.476;7.210;2023-06-14T12:35:36;1.83;;;1.73;;
11422;SDS011;5768;51.476;7.210;2023-06-14T12:40:39;2.15;;;1.90;;
11422;SDS011;5768;51.476;7.210;2023-06-14T12:45:42;2.80;;;2.10;;
11422;SDS011;5768;51.476;7.210;2023-06-14T12:50:46;2.65;;;1.80;;
11422;SDS011;5768;51.476;7.210;2023-06-14T12:55:49;2.97;;;2.30;;
11422;SDS011;5768;51.476;7.210;2023-06-14T13:00:51;5.07;;;3.00;;
11422;SDS011;5768;51.476;7.210;2023-06-14T13:05:55;2.00;;;1.50;;
11422;SDS011;5768;51.476;7.210;2023-06-14T13:10:58;4.85;;;2.28;;
11422;SDS011;5768;51.476;7.210;2023-06-14T13:16:01;2.20;;;2.00;;
11422;SDS011;5768;51.476;7.210;2023-06-14T13:21:04;4.30;;;2.60;;
11422;SDS011;5768;51.476;7.210;2023-06-14T13:26:07;4.53;;;3.20;;
11422;SDS011;5768;51.476;7.210;2023-06-14T13:31:10;3.40;;;2.50;;
11422;SDS011;5768;51.476;7.210;2023-06-14T13:36:14;3.17;;;2.15;;
11422;SDS011;5768;51.476;7.210;2023-06-14T13:41:16;12.48;;;4.35;;
11422;SDS011;5768;51.476;7.210;2023-06-14T13:46:19;3.72;;;2.50;;
11422;SDS011;5768;51.476;7.210;2023-06-14T13:51:23;2.15;;;1.75;;
11422;SDS011;5768;51.476;7.210;2023-06-14T13:56:26;2.30;;;1.60;;
11422;SDS011;5768;51.476;7.210;2023-06-14T14:01:30;4.72;;;2.03;;
11422;SDS011;5768;51.476;7.210;2023-06-14T14:06:34;3.58;;;1.92;;
11422;SDS011;5768;51.476;7.210;2023-06-14T14:11:36;2.50;;;1.60;;
11422;SDS011;5768;51.476;7.210;2023-06-14T14:16:40;2.85;;;1.80;;
11422;SDS011;5768;51.476;7.210;2023-06-14T14:21:44;2.53;;;1.50;;
11422;SDS011;5768;51.476;7.210;2023-06-14T14:26:46;1.88;;;1.60;;
11422;SDS011;5768;51.476;7.210;2023-06-14T14:31:49;2.45;;;1.77;;
11422;SDS011;5768;51.476;7.210;2023-06-14T14:36:53;3.70;;;1.58;;
11422;SDS011;5768;51.476;7.210;2023-06-14T14:41:56;3.42;;;1.60;;
11422;SDS011;5768;51.476;7.210;2023-06-14T14:46:59;4.72;;;1.98;;
11422;SDS011;5768;51.476;7.210;2023-06-14T14:52:03;3.58;;;2.17;;
11422;SDS011;5768;51.476;7.210;2023-06-14T14:57:06;5.78;;;1.60;;
11422;SDS011;5768;51.476;7.210;2023-06-14T15:02:09;3.15;;;1.75;;
11422;SDS011;5768;51.476;7.210;2023-06-14T15:07:13;3.70;;;1.50;;
11422;SDS011;5768;51.476;7.210;2023-06-14T15:12:16;3.00;;;1.50;;
11422;SDS011;5768;51.476;7.210;2023-06-14T15:17:20;5.55;;;1.73;;
11422;SDS011;5768;51.476;7.210;2023-06-14T15:22:25;3.58;;;1.50;;
11422;SDS011;5768;51.476;7.210;2023-06-14T15:27:28;1.70;;;1.35;;
11422;SDS011;5768;51.476;7.210;2023-06-14T15:32:31;3.03;;;1.40;;
11422;SDS011;5768;51.476;7.210;2023-06-14T15:37:37;2.97;;;1.40;;
11422;SDS011;5768;51.476;7.210;2023-06-14T15:42:40;2.67;;;1.60;;
11422;SDS011;5768;51.476;7.210;2023-06-14T15:47:42;4.28;;;3.05;;
11422;SDS011;5768;51.476;7.210;2023-06-14T15:52:46;2.38;;;1.30;;
11422;SDS011;5768;51.476;7.210;2023-06-14T15:57:49;1.50;;;1.40;;
11422;SDS011;5768;51.476;7.210;2023-06-14T16:02:52;2.53;;;1.65;;
11422;SDS011;5768;51.476;7.210;2023-06-14T16:07:56;2.67;;;1.40;;
11422;SDS011;5768;51.476;7.210;2023-06-14T16:12:58;2.00;;;1.30;;
11422;SDS011;5768;51.476;7.210;2023-06-14T16:18:01;2.83;;;1.58;;
11422;SDS011;5768;51.476;7.210;2023-06-14T16:23:05;2.20;;;1.35;;
11422;SDS011;5768;51.476;7.210;2023-06-14T16:28:07;3.10;;;1.58;;
11422;SDS011;5768;51.476;7.210;2023-06-14T16:33:10;1.50;;;1.40;;
11422;SDS011;5768;51.476;7.210;2023-06-14T16:38:13;2.05;;;1.33;;
11422;SDS011;5768;51.476;7.210;2023-06-14T16:43:16;2.13;;;1.50;;
11422;SDS011;5768;51.476;7.210;2023-06-14T16:48:18;2.20;;;1.75;;
11422;SDS011;5768;51.476;7.210;2023-06-14T16:53:22;2.30;;;1.40;;
11422;SDS011;5768;51.476;7.210;2023-06-14T16:58:25;3.22;;;1.40;;
11422;SDS011;5768;51.476;7.210;2023-06-14T17:03:27;1.55;;;1.40;;
11422;SDS011;5768;51.476;7.210;2023-06-14T17:08:33;2.35;;;1.42;;
11422;SDS011;5768;51.476;7.210;2023-06-14T17:13:36;2.22;;;1.40;;
11422;SDS011;5768;51.476;7.210;2023-06-14T17:18:38;1.95;;;1.40;;
11422;SDS011;5768;51.476;7.210;2023-06-14T17:23:43;2.33;;;1.50;;
11422;SDS011;5768;51.476;7.210;2023-06-14T17:28:45;2.65;;;1.55;;
11422;SDS011;5768;51.476;7.210;2023-06-14T17:33:48;1.80;;;1.40;;
11422;SDS011;5768;51.476;7.210;2023-06-14T17:38:52;1.48;;;1.35;;
11422;SDS011;5768;51.476;7.210;2023-06-14T17:43:54;1.73;;;1.55;;
11422;SDS011;5768;51.476;7.210;2023-06-14T17:48:57;3.63;;;1.70;;
11422;SDS011;5768;51.476;7.210;2023-06-14T17:54:01;1.70;;;1.50;;
11422;SDS011;5768;51.476;7.210;2023-06-14T17:59:04;1.92;;;1.45;;
11422;SDS011;5768;51.476;7.210;2023-06-14T18:04:06;2.90;;;1.80;;
11422;SDS011;5768;51.476;7.210;2023-06-14T18:09:10;1.50;;;1.40;;
11422;SDS011;5768;51.476;7.210;2023-06-14T18:14:15;1.60;;;1.50;;
11422;SDS011;5768;51.476;7.210;2023-06-14T18:19:17;3.83;;;1.40;;
11422;SDS011;5768;51.476;7.210;2023-06-14T18:24:24;1.70;;;1.60;;
11422;SDS011;5768;51.476;7.210;2023-06-14T18:29:27;2.40;;;1.42;;
11422;SDS011;5768;51.476;7.210;2023-06-14T18:34:29;2.25;;;1.60;;
11422;SDS011;5768;51.476;7.210;2023-06-14T18:39:33;2.40;;;2.20;;
11422;SDS011;5768;51.476;7.210;2023-06-14T18:44:36;1.90;;;1.70;;
11422;SDS011;5768;51.476;7.210;2023-06-14T18:49:38;1.73;;;1.63;;
11422;SDS011;5768;51.476;7.210;2023-06-14T18:54:43;2.05;;;1.50;;
11422;SDS011;5768;51.476;7.210;2023-06-14T18:59:45;2.35;;;1.70;;
11422;SDS011;5768;51.476;7.210;2023-06-14T19:04:48;1.83;;;1.73;;
11422;SDS011;5768;51.476;7.210;2023-06-14T19:09:52;1.60;;;1.50;;
11422;SDS011;5768;51.476;7.210;2023-06-14T19:14:54;2.67;;;1.80;;
11422;SDS011;5768;51.476;7.210;2023-06-14T19:19:57;2.35;;;1.60;;
11422;SDS011;5768;51.476;7.210;2023-06-14T19:25:01;2.50;;;1.80;;
11422;SDS011;5768;51.476;7.210;2023-06-14T19:30:03;3.67;;;2.10;;
11422;SDS011;5768;51.476;7.210;2023-06-14T19:35:07;2.80;;;2.00;;
11422;SDS011;5768;51.476;7.210;2023-06-14T19:40:12;3.13;;;2.88;;
11422;SDS011;5768;51.476;7.210;2023-06-14T19:45:15;2.75;;;2.33;;
11422;SDS011;5768;51.476;7.210;2023-06-14T19:50:18;2.42;;;2.20;;
11422;SDS011;5768;51.476;7.210;2023-06-14T19:55:22;4.07;;;2.50;;
11422;SDS011;5768;51.476;7.210;2023-06-14T20:00:26;14.80;;;2.85;;
11422;SDS011;5768;51.476;7.210;2023-06-14T20:05:28;9.55;;;2.85;;
11422;SDS011;5768;51.476;7.210;2023-06-14T20:10:32;4.43;;;2.38;;
11422;SDS011;5768;51.476;7.210;2023-06-14T20:15:35;4.47;;;2.50;;
11422;SDS011;5768;51.476;7.210;2023-06-14T20:20:38;2.85;;;2.30;;
11422;SDS011;5768;51.476;7.210;2023-06-14T20:25:43;3.35;;;2.40;;
11422;SDS011;5768;51.476;7.210;2023-06-14T20:30:45;4.03;;;2.90;;
11422;SDS011;5768;51.476;7.210;2023-06-14T20:35:48;6.63;;;2.90;;
11422;SDS011;5768;51.476;7.210;2023-06-14T20:40:52;5.13;;;2.50;;
11422;SDS011;5768;51.476;7.210;2023-06-14T20:45:57;2.83;;;2.45;;
11422;SDS011;5768;51.476;7.210;2023-06-14T20:50:59;2.80;;;2.53;;
11422;SDS011;5768;51.476;7.210;2023-06-14T20:56:04;5.80;;;2.92;;
11422;SDS011;5768;51.476;7.210;2023-06-14T21:01:10;4.22;;;2.42;;
11422;SDS011;5768;51.476;7.210;2023-06-14T21:06:13;4.32;;;2.78;;
11422;SDS011;5768;51.476;7.210;2023-06-14T21:11:17;4.13;;;2.83;;
11422;SDS011;5768;51.476;7.210;2023-06-14T21:16:20;4.72;;;2.70;;
11422;SDS011;5768;51.476;7.210;2023-06-14T21:21:22;6.88;;;3.20;;
11422;SDS011;5768;51.476;7.210;2023-06-14T21:26:26;5.07;;;2.95;;
11422;SDS011;5768;51.476;7.210;2023-06-14T21:31:29;4.43;;;3.10;;
11422;SDS011;5768;51.476;7.210;2023-06-14T21:36:31;6.72;;;3.70;;
11422;SDS011;5768;51.476;7.210;2023-06-14T21:41:36;6.07;;;3.20;;
11422;SDS011;5768;51.476;7.210;2023-06-14T21:46:39;3.22;;;2.80;;
11422;SDS011;5768;51.476;7.210;2023-06-14T21:51:41;4.25;;;3.38;;
11422;SDS011;5768;51.476;7.210;2023-06-14T21:56:45;6.47;;;3.05;;
11422;SDS011;5768;51.476;7.210;2023-06-14T22:01:48;7.85;;;2.90;;
11422;SDS011;5768;51.476;7.210;2023-06-14T22:06:50;4.43;;;2.80;;
11422;SDS011;5768;51.476;7.210;2023-06-14T22:11:54;3.63;;;3.10;;
11422;SDS011;5768;51.476;7.210;2023-06-14T22:16:57;5.60;;;3.00;;
11422;SDS011;5768;51.476;7.210;2023-06-14T22:22:03;4.47;;;3.28;;
11422;SDS011;5768;51.476;7.210;2023-06-14T22:27:10;3.38;;;3.08;;
11422;SDS011;5768;51.476;7.210;2023-06-14T22:32:12;3.45;;;3.15;;
11422;SDS011;5768;51.476;7.210;2023-06-14T22:37:15;3.70;;;2.80;;
11422;SDS011;5768;51.476;7.210;2023-06-14T22:42:19;6.60;;;3.20;;
11422;SDS011;5768;51.476;7.210;2023-06-14T22:47:23;6.93;;;3.20;;
11422;SDS011;5768;51.476;7.210;2023-06-14T22:52:26;4.97;;;3.47;;
11422;SDS011;5768;51.476;7.210;2023-06-14T22:57:30;5.75;;;3.67;;
11422;SDS011;5768;51.476;7.210;2023-06-14T23:02:34;9.02;;;3.20;;
11422;SDS011;5768;51.476;7.210;2023-06-14T23:07:37;4.50;;;3.17;;
11422;SDS011;5768;51.476;7.210;2023-06-14T23:12:53;6.22;;;3.30;;
11422;SDS011;5768;51.476;7.210;2023-06-14T23:17:59;6.80;;;3.85;;
11422;SDS011;5768;51.476;7.210;2023-06-14T23:23:01;7.00;;;3.58;;
11422;SDS011;5768;51.476;7.210;2023-06-14T23:28:05;4.70;;;3.20;;
11422;SDS011;5768;51.476;7.210;2023-06-14T23:33:08;5.95;;;3.40;;
11422;SDS011;5768;51.476;7.210;2023-06-14T23:38:11;8.90;;;3.30;;
11422;SDS011;5768;51.476;7.210;2023-06-14T23:43:15;5.40;;;3.30;;
11422;SDS011;5768;51.476;7.210;2023-06-14T23:48:19;6.65;;;3.40;;
11422;SDS011;5768;51.476;7.210;2023-06-14T23:53:25;4.97;;;3.20;;
11422;SDS011;5768;51.476;7.210;2023-06-14T23:58:29;5.80;;;3.53;;
